Time;durP1;ratioP1;P1;durP2;ratioP2;P2;SDS_P1;SDS_P2;PMS_P1;PMS_P2;Temp;Humidity;BMP_temperature;BMP_pressure;BME280_temperature;BME280_humidity;BME280_pressure;Samples;Min_cycle;Max_cycle;Signal;HPM_P1;HPM_P2
2023/08/14 00:00:04;;;;;;;0.93;0.55;;;;;;;;;;4999643;28;20046;-72
2023/08/14 00:02:38;;;;;;;0.80;0.70;;;;;;;;;;5000164;28;20069;-72
2023/08/14 00:05:04;;;;;;;1.15;0.80;;;;;;;;;;5001210;28;20058;-72
2023/08/14 00:07:30;;;;;;;0.70;0.70;;;;;;;;;;5012331;28;20074;-72
2023/08/14 00:09:55;;;;;;;0.98;0.73;;;;;;;;;;5000388;28;20102;-72
2023/08/14 00:12:21;;;;;;;4.78;0.80;;;;;;;;;;4999753;28;20058;-73
2023/08/14 00:14:46;;;;;;;0.70;0.70;;;;;;;;;;4999526;28;20080;-72
2023/08/14 00:17:12;;;;;;;3.13;0.60;;;;;;;;;;5006385;28;20136;-72
2023/08/14 00:19:37;;;;;;;1.85;0.50;;;;;;;;;;5009765;28;20056;-72
2023/08/14 00:22:02;;;;;;;2.10;0.70;;;;;;;;;;5009068;28;20128;-72
2023/08/14 00:24:28;;;;;;;0.82;0.57;;;;;;;;;;5004063;28;20060;-72
2023/08/14 00:26:53;;;;;;;1.48;0.70;;;;;;;;;;4998818;28;20045;-72
2023/08/14 00:29:18;;;;;;;5.68;0.70;;;;;;;;;;5002603;28;20530;-72
2023/08/14 00:31:44;;;;;;;0.95;0.70;;;;;;;;;;4998860;28;20046;-72
2023/08/14 00:34:09;;;;;;;1.10;0.57;;;;;;;;;;5001885;28;20049;-72
2023/08/14 00:36:35;;;;;;;0.70;0.70;;;;;;;;;;5000748;28;20050;-72
2023/08/14 00:39:00;;;;;;;0.77;0.60;;;;;;;;;;5003541;28;20952;-72
2023/08/14 00:41:26;;;;;;;1.58;0.60;;;;;;;;;;5003597;28;20049;-72
2023/08/14 00:43:51;;;;;;;0.50;0.50;;;;;;;;;;5003524;28;20037;-72
2023/08/14 00:46:17;;;;;;;0.93;0.80;;;;;;;;;;5014537;28;20062;-72
2023/08/14 00:48:43;;;;;;;0.50;0.50;;;;;;;;;;5000817;28;20058;-72
2023/08/14 00:51:08;;;;;;;1.48;1.02;;;;;;;;;;5004022;28;20042;-72
2023/08/14 00:53:34;;;;;;;1.52;0.82;;;;;;;;;;5004814;28;20057;-72
2023/08/14 00:56:02;;;;;;;0.70;0.70;;;;;;;;;;5000903;28;20112;-72
2023/08/14 00:58:29;;;;;;;0.70;0.70;;;;;;;;;;5003389;28;20145;-72
2023/08/14 01:00:56;;;;;;;1.40;0.60;;;;;;;;;;5001664;28;20048;-72
2023/08/14 01:03:24;;;;;;;0.73;0.60;;;;;;;;;;5018334;28;20049;-71
2023/08/14 01:05:49;;;;;;;0.32;0.32;;;;;;;;;;5001470;28;20049;-72
2023/08/14 01:08:15;;;;;;;3.92;1.33;;;;;;;;;;5005193;28;20041;-72
2023/08/14 01:10:57;;;;;;;0.82;0.68;;;;;;;;;;5007925;28;20479;-72
2023/08/14 01:13:31;;;;;;;0.55;0.52;;;;;;;;;;5003788;28;20045;-71
2023/08/14 01:16:01;;;;;;;1.38;0.60;;;;;;;;;;5009869;28;20066;-73
2023/08/14 01:18:28;;;;;;;2.25;0.75;;;;;;;;;;5002299;28;20116;-71
2023/08/14 01:21:01;;;;;;;0.70;0.70;;;;;;;;;;4983912;28;20545;-71
2023/08/14 01:23:40;;;;;;;1.85;0.70;;;;;;;;;;4985235;28;21015;-71
2023/08/14 01:26:07;;;;;;;0.60;0.60;;;;;;;;;;5012767;28;20058;-71
2023/08/14 01:28:32;;;;;;;0.75;0.60;;;;;;;;;;4992608;28;20236;-72
2023/08/14 01:30:58;;;;;;;4.18;0.70;;;;;;;;;;4988843;28;20509;-71
2023/08/14 01:33:23;;;;;;;0.80;0.80;;;;;;;;;;5013308;28;20061;-71
2023/08/14 01:35:55;;;;;;;0.77;0.52;;;;;;;;;;5002218;28;20104;-72
2023/08/14 01:38:44;;;;;;;0.85;0.82;;;;;;;;;;5000111;28;20053;-72
2023/08/14 01:41:40;;;;;;;0.65;0.60;;;;;;;;;;5017611;28;20042;-72
2023/08/14 01:44:08;;;;;;;0.95;0.85;;;;;;;;;;5000870;28;20537;-72
2023/08/14 01:46:34;;;;;;;0.50;0.50;;;;;;;;;;5001941;28;20427;-71
2023/08/14 01:49:02;;;;;;;0.50;0.50;;;;;;;;;;5001879;28;20056;-72
2023/08/14 01:51:28;;;;;;;1.00;0.90;;;;;;;;;;5000850;28;20092;-71
2023/08/14 01:53:54;;;;;;;0.73;0.73;;;;;;;;;;5000885;28;20084;-71
2023/08/14 01:56:20;;;;;;;3.45;0.80;;;;;;;;;;4999989;28;20111;-72
2023/08/14 01:58:46;;;;;;;1.15;0.60;;;;;;;;;;5008499;28;20053;-72
2023/08/14 02:01:11;;;;;;;1.77;0.98;;;;;;;;;;5002088;28;20586;-72
2023/08/14 02:03:36;;;;;;;2.00;0.90;;;;;;;;;;5000445;28;20046;-72
2023/08/14 02:06:02;;;;;;;0.70;0.70;;;;;;;;;;5012649;28;20042;-72
2023/08/14 02:08:27;;;;;;;1.15;0.75;;;;;;;;;;5016587;28;20050;-72
2023/08/14 02:10:53;;;;;;;1.90;0.80;;;;;;;;;;5000275;28;20145;-72
2023/08/14 02:13:18;;;;;;;0.80;0.80;;;;;;;;;;5010662;28;20045;-71
2023/08/14 02:15:45;;;;;;;1.08;0.93;;;;;;;;;;4996296;28;20041;-72
2023/08/14 02:18:11;;;;;;;0.85;0.80;;;;;;;;;;4999276;28;20061;-72
2023/08/14 02:20:45;;;;;;;1.08;0.85;;;;;;;;;;4999822;28;20070;-72
2023/08/14 02:23:10;;;;;;;1.27;0.80;;;;;;;;;;5016776;28;20204;-72
2023/08/14 02:25:42;;;;;;;3.45;1.00;;;;;;;;;;5009119;28;20140;-72
2023/08/14 02:28:08;;;;;;;;;;;;;;;;;;5011492;28;20053;-72
2023/08/14 02:30:38;;;;;;;1.67;0.77;;;;;;;;;;5015554;28;19928;-72
2023/08/14 02:33:04;;;;;;;1.80;1.00;;;;;;;;;;5016941;28;20558;-71
2023/08/14 02:35:30;;;;;;;1.83;0.85;;;;;;;;;;5016498;28;20133;-71
2023/08/14 02:37:55;;;;;;;0.80;0.80;;;;;;;;;;4998342;28;20060;-71
2023/08/14 02:40:21;;;;;;;0.80;0.80;;;;;;;;;;5000486;28;20108;-71
2023/08/14 02:42:46;;;;;;;0.98;0.80;;;;;;;;;;5015998;28;20144;-71
2023/08/14 02:45:12;;;;;;;1.27;0.85;;;;;;;;;;4999551;28;20050;-71
2023/08/14 02:47:38;;;;;;;3.33;0.80;;;;;;;;;;5001122;28;20068;-71
2023/08/14 02:50:04;;;;;;;0.80;0.80;;;;;;;;;;5001607;28;20046;-71
2023/08/14 02:52:30;;;;;;;0.80;0.80;;;;;;;;;;4999594;28;20073;-71
2023/08/14 02:54:55;;;;;;;1.08;0.77;;;;;;;;;;4999657;28;20069;-71
2023/08/14 02:57:20;;;;;;;1.90;1.02;;;;;;;;;;4999655;28;20542;-70
2023/08/14 02:59:46;;;;;;;0.98;0.90;;;;;;;;;;4997949;28;20095;-71
2023/08/14 03:02:11;;;;;;;1.10;0.98;;;;;;;;;;5000424;28;20511;-71
2023/08/14 03:04:37;;;;;;;3.72;0.90;;;;;;;;;;5001173;28;20494;-71
2023/08/14 03:07:02;;;;;;;1.83;1.00;;;;;;;;;;4999128;28;20046;-71
2023/08/14 03:09:27;;;;;;;1.40;0.90;;;;;;;;;;4999273;28;20050;-71
2023/08/14 03:11:53;;;;;;;0.73;0.73;;;;;;;;;;5000471;28;20066;-71
2023/08/14 03:14:18;;;;;;;2.15;1.50;;;;;;;;;;5000273;28;20104;-71
2023/08/14 03:16:44;;;;;;;0.90;0.90;;;;;;;;;;5009381;28;20481;-71
2023/08/14 03:19:10;;;;;;;1.30;1.20;;;;;;;;;;5000866;28;20085;-71
2023/08/14 03:21:37;;;;;;;1.10;1.00;;;;;;;;;;5013781;28;20143;-71
2023/08/14 03:24:02;;;;;;;1.40;1.08;;;;;;;;;;4999990;28;20116;-72
2023/08/14 03:26:28;;;;;;;1.17;1.10;;;;;;;;;;4981632;28;20638;-72
2023/08/14 03:28:53;;;;;;;1.73;1.10;;;;;;;;;;5004048;28;20073;-71
2023/08/14 03:31:19;;;;;;;0.88;0.88;;;;;;;;;;4996655;28;20053;-71
2023/08/14 03:33:44;;;;;;;1.55;0.95;;;;;;;;;;4998714;28;20458;-71
2023/08/14 03:36:10;;;;;;;5.25;1.42;;;;;;;;;;4999246;28;20053;-72
2023/08/14 03:38:36;;;;;;;1.25;1.15;;;;;;;;;;4998334;28;20507;-71
2023/08/14 03:41:03;;;;;;;1.33;1.23;;;;;;;;;;5007492;28;20042;-71
2023/08/14 03:43:30;;;;;;;1.63;1.05;;;;;;;;;;5014339;28;20048;-71
2023/08/14 03:45:56;;;;;;;1.45;0.93;;;;;;;;;;4998696;28;20045;-71
2023/08/14 03:48:22;;;;;;;1.73;1.00;;;;;;;;;;4982061;28;20052;-71
2023/08/14 03:50:47;;;;;;;1.63;1.05;;;;;;;;;;4981979;28;20403;-71
2023/08/14 03:53:13;;;;;;;1.65;0.95;;;;;;;;;;4998719;28;20499;-71
2023/08/14 03:55:39;;;;;;;1.17;1.05;;;;;;;;;;4999513;28;20419;-71
2023/08/14 03:58:04;;;;;;;0.88;0.88;;;;;;;;;;5013990;28;20042;-71
2023/08/14 04:00:30;;;;;;;3.88;1.08;;;;;;;;;;5000085;28;20046;-71
2023/08/14 04:02:55;;;;;;;1.10;0.80;;;;;;;;;;5000258;28;20592;-71
2023/08/14 04:05:21;;;;;;;1.65;0.95;;;;;;;;;;4998367;28;20128;-71
2023/08/14 04:07:46;;;;;;;2.35;0.85;;;;;;;;;;5007271;28;20046;-71
2023/08/14 04:10:12;;;;;;;0.82;0.82;;;;;;;;;;4992303;28;20070;-71
2023/08/14 04:12:37;;;;;;;1.13;0.95;;;;;;;;;;5002554;28;20046;-71
2023/08/14 04:15:15;;;;;;;1.08;0.90;;;;;;;;;;4987954;28;20811;-71
2023/08/14 04:17:40;;;;;;;0.98;0.95;;;;;;;;;;5013817;28;20053;-71
2023/08/14 04:20:07;;;;;;;1.05;0.80;;;;;;;;;;4998006;28;20042;-72
2023/08/14 04:22:32;;;;;;;1.02;1.00;;;;;;;;;;5000111;28;20503;-71
2023/08/14 04:24:58;;;;;;;2.40;1.30;;;;;;;;;;5000249;28;20049;-71
2023/08/14 04:27:23;;;;;;;2.15;1.00;;;;;;;;;;4998924;28;20446;-71
2023/08/14 04:29:48;;;;;;;0.80;0.80;;;;;;;;;;4994175;28;20511;-71
2023/08/14 04:32:14;;;;;;;1.55;0.95;;;;;;;;;;5009771;28;20076;-71
2023/08/14 04:34:40;;;;;;;1.85;0.90;;;;;;;;;;4998043;28;20053;-71
2023/08/14 04:37:06;;;;;;;0.95;0.95;;;;;;;;;;4998221;28;20388;-71
2023/08/14 04:39:33;;;;;;;0.85;0.80;;;;;;;;;;4993334;28;20050;-71
2023/08/14 04:42:00;;;;;;;1.75;1.00;;;;;;;;;;5014109;28;20067;-72
2023/08/14 04:44:26;;;;;;;3.15;1.10;;;;;;;;;;4997945;28;20045;-71
2023/08/14 04:46:51;;;;;;;1.58;0.90;;;;;;;;;;5005819;28;20560;-71
2023/08/14 04:49:17;;;;;;;1.05;0.98;;;;;;;;;;4997354;28;20045;-71
2023/08/14 04:51:42;;;;;;;3.00;1.10;;;;;;;;;;4998348;28;20046;-71
2023/08/14 04:54:08;;;;;;;4.88;1.30;;;;;;;;;;4995284;28;20107;-71
2023/08/14 04:56:33;;;;;;;1.23;1.08;;;;;;;;;;5011625;28;20042;-72
2023/08/14 04:58:59;;;;;;;1.10;0.95;;;;;;;;;;4999489;28;20085;-71
2023/08/14 05:01:24;;;;;;;1.30;1.15;;;;;;;;;;5000521;28;20046;-71
2023/08/14 05:03:54;;;;;;;0.95;0.95;;;;;;;;;;5009813;28;20050;-72
2023/08/14 05:06:19;;;;;;;1.10;1.00;;;;;;;;;;5001789;28;20053;-72
2023/08/14 05:08:45;;;;;;;1.67;0.90;;;;;;;;;;4984780;28;20096;-71
2023/08/14 05:11:10;;;;;;;1.08;1.00;;;;;;;;;;5003086;28;20103;-70
2023/08/14 05:13:36;;;;;;;1.50;1.25;;;;;;;;;;5002561;28;20050;-71
2023/08/14 05:16:02;;;;;;;1.45;1.20;;;;;;;;;;5012550;28;20069;-71
2023/08/14 05:18:27;;;;;;;3.33;1.23;;;;;;;;;;5017770;28;20048;-71
2023/08/14 05:20:53;;;;;;;1.95;1.30;;;;;;;;;;5004958;28;20046;-71
2023/08/14 05:23:20;;;;;;;2.20;1.20;;;;;;;;;;5014279;28;20048;-71
2023/08/14 05:25:46;;;;;;;1.67;1.20;;;;;;;;;;5010957;28;20041;-71
2023/08/14 05:28:11;;;;;;;2.45;0.95;;;;;;;;;;5005621;28;20042;-72
2023/08/14 05:30:41;;;;;;;2.58;1.00;;;;;;;;;;5002872;28;20410;-71
2023/08/14 05:33:07;;;;;;;0.82;0.82;;;;;;;;;;5002269;28;20851;-71
2023/08/14 05:35:32;;;;;;;1.13;1.02;;;;;;;;;;5020299;28;20595;-71
2023/08/14 05:37:59;;;;;;;0.88;0.88;;;;;;;;;;5002157;28;20099;-71
2023/08/14 05:40:26;;;;;;;1.98;0.90;;;;;;;;;;5002434;28;20059;-71
2023/08/14 05:43:03;;;;;;;0.80;0.75;;;;;;;;;;5002308;28;20058;-71
2023/08/14 05:45:36;;;;;;;0.88;0.88;;;;;;;;;;5001151;28;20069;-71
2023/08/14 05:48:03;;;;;;;1.10;0.80;;;;;;;;;;5001510;28;20041;-70
2023/08/14 05:50:30;;;;;;;1.85;0.90;;;;;;;;;;5001995;28;20046;-71
2023/08/14 05:52:58;;;;;;;1.40;0.93;;;;;;;;;;5000578;28;20049;-71
2023/08/14 05:55:25;;;;;;;0.80;0.80;;;;;;;;;;5001541;28;20057;-71
2023/08/14 05:57:50;;;;;;;0.82;0.75;;;;;;;;;;5002242;28;20144;-71
2023/08/14 06:00:17;;;;;;;1.20;0.90;;;;;;;;;;5006047;28;20052;-72
2023/08/14 06:02:42;;;;;;;0.85;0.85;;;;;;;;;;5002346;28;20049;-71
2023/08/14 06:05:08;;;;;;;1.55;0.80;;;;;;;;;;5000775;28;20045;-71
2023/08/14 06:07:35;;;;;;;0.80;0.77;;;;;;;;;;5001426;28;20046;-71
2023/08/14 06:10:02;;;;;;;1.00;0.93;;;;;;;;;;5001101;28;20080;-71
2023/08/14 06:12:28;;;;;;;1.48;1.20;;;;;;;;;;5002004;28;20049;-71
2023/08/14 06:14:53;;;;;;;2.63;1.20;;;;;;;;;;5001293;28;20045;-71
2023/08/14 06:17:18;;;;;;;1.42;1.33;;;;;;;;;;4995363;28;20052;-71
2023/08/14 06:19:44;;;;;;;1.30;1.20;;;;;;;;;;5001276;28;20065;-71
2023/08/14 06:22:10;;;;;;;2.85;1.42;;;;;;;;;;5001389;28;20045;-71
2023/08/14 06:24:35;;;;;;;2.25;1.20;;;;;;;;;;5001725;28;20557;-71
2023/08/14 06:27:01;;;;;;;4.97;1.25;;;;;;;;;;5001578;28;20050;-71
2023/08/14 06:29:26;;;;;;;1.17;1.08;;;;;;;;;;5011686;28;20045;-71
2023/08/14 06:31:52;;;;;;;2.05;1.40;;;;;;;;;;5001557;28;20526;-71
2023/08/14 06:34:17;;;;;;;1.98;1.33;;;;;;;;;;5000676;28;20099;-71
2023/08/14 06:36:43;;;;;;;7.22;1.30;;;;;;;;;;5016123;28;20048;-70
2023/08/14 06:39:08;;;;;;;1.00;1.00;;;;;;;;;;5000577;28;20185;-71
2023/08/14 06:41:34;;;;;;;1.73;1.27;;;;;;;;;;5000902;28;20057;-72
2023/08/14 06:44:05;;;;;;;1.40;1.30;;;;;;;;;;4989923;28;20095;-69
2023/08/14 06:46:31;;;;;;;2.72;1.52;;;;;;;;;;5009025;28;20531;-70
2023/08/14 06:48:56;;;;;;;4.10;1.63;;;;;;;;;;5008367;28;20053;-70
2023/08/14 06:51:22;;;;;;;3.53;1.30;;;;;;;;;;5006718;28;20045;-70
2023/08/14 06:53:47;;;;;;;1.40;1.30;;;;;;;;;;5003697;28;20042;-69
2023/08/14 06:56:15;;;;;;;3.70;1.50;;;;;;;;;;5006550;28;21056;-70
2023/08/14 06:58:41;;;;;;;2.42;1.25;;;;;;;;;;5011662;28;20160;-71
2023/08/14 07:01:07;;;;;;;1.55;1.38;;;;;;;;;;5011979;28;20049;-71
2023/08/14 07:03:33;;;;;;;3.95;1.40;;;;;;;;;;5011544;28;20050;-71
2023/08/14 07:05:58;;;;;;;1.50;1.38;;;;;;;;;;5009812;28;20045;-70
2023/08/14 07:08:24;;;;;;;1.95;1.40;;;;;;;;;;5007535;28;20052;-70
2023/08/14 07:10:50;;;;;;;1.55;1.45;;;;;;;;;;5003682;28;20049;-70
2023/08/14 07:13:15;;;;;;;1.40;1.30;;;;;;;;;;5006828;28;20052;-69
2023/08/14 07:15:41;;;;;;;3.83;1.58;;;;;;;;;;5012851;28;20063;-70
2023/08/14 07:18:08;;;;;;;2.05;1.80;;;;;;;;;;5007998;28;20103;-70
2023/08/14 07:20:33;;;;;;;3.25;1.60;;;;;;;;;;5011403;28;20044;-70
2023/08/14 07:22:59;;;;;;;3.38;1.42;;;;;;;;;;5005343;28;20053;-70
2023/08/14 07:25:25;;;;;;;2.80;1.70;;;;;;;;;;5001933;28;20060;-69
2023/08/14 07:27:50;;;;;;;2.67;1.60;;;;;;;;;;5008323;28;20534;-70
2023/08/14 07:30:16;;;;;;;1.73;1.63;;;;;;;;;;5005031;28;20471;-70
2023/08/14 07:32:41;;;;;;;2.42;1.60;;;;;;;;;;5011876;28;20049;-71
2023/08/14 07:35:07;;;;;;;2.38;2.08;;;;;;;;;;5008870;28;20524;-71
2023/08/14 07:37:32;;;;;;;2.20;2.00;;;;;;;;;;5012213;28;20038;-70
2023/08/14 07:39:59;;;;;;;3.92;2.00;;;;;;;;;;5011342;28;20042;-70
2023/08/14 07:42:24;;;;;;;2.55;1.67;;;;;;;;;;5009904;28;20133;-70
2023/08/14 07:44:49;;;;;;;4.65;1.80;;;;;;;;;;5012035;28;20458;-71
2023/08/14 07:47:15;;;;;;;1.70;1.50;;;;;;;;;;5008791;28;20132;-70
2023/08/14 07:49:40;;;;;;;3.75;1.75;;;;;;;;;;5006366;28;20050;-70
2023/08/14 07:52:06;;;;;;;4.30;1.90;;;;;;;;;;5006232;28;20058;-71
2023/08/14 07:54:32;;;;;;;1.77;1.63;;;;;;;;;;5002639;28;20054;-71
2023/08/14 07:56:57;;;;;;;1.58;1.35;;;;;;;;;;4995285;28;20522;-71
2023/08/14 07:59:23;;;;;;;2.40;1.55;;;;;;;;;;5005024;28;20046;-71
2023/08/14 08:01:48;;;;;;;2.88;1.50;;;;;;;;;;5011696;28;20045;-70
2023/08/14 08:04:14;;;;;;;4.43;1.60;;;;;;;;;;5009794;28;20050;-70
2023/08/14 08:06:39;;;;;;;1.70;1.40;;;;;;;;;;5007860;28;20128;-71
2023/08/14 08:09:05;;;;;;;4.32;1.83;;;;;;;;;;5011489;28;20037;-71
2023/08/14 08:11:30;;;;;;;1.80;1.40;;;;;;;;;;5004256;28;20064;-70
2023/08/14 08:13:56;;;;;;;1.60;1.45;;;;;;;;;;5006396;28;20038;-70
2023/08/14 08:16:21;;;;;;;1.13;1.13;;;;;;;;;;5008420;28;20068;-70
2023/08/14 08:18:47;;;;;;;2.97;1.60;;;;;;;;;;5007452;28;20605;-70
2023/08/14 08:21:12;;;;;;;1.90;1.55;;;;;;;;;;5012174;28;20139;-69
2023/08/14 08:23:38;;;;;;;1.90;1.70;;;;;;;;;;5010232;28;20123;-70
2023/08/14 08:26:03;;;;;;;1.70;1.60;;;;;;;;;;5001584;28;20772;-70
2023/08/14 08:28:29;;;;;;;2.13;1.40;;;;;;;;;;5013125;28;20049;-70
2023/08/14 08:30:54;;;;;;;2.05;1.60;;;;;;;;;;5002478;28;20064;-71
2023/08/14 08:33:20;;;;;;;1.70;1.60;;;;;;;;;;5005535;28;20045;-70
2023/08/14 08:35:45;;;;;;;2.00;1.35;;;;;;;;;;4998589;28;20050;-70
2023/08/14 08:38:10;;;;;;;1.40;1.30;;;;;;;;;;4992824;28;20040;-70
2023/08/14 08:40:37;;;;;;;1.60;1.50;;;;;;;;;;5011937;28;20057;-70
2023/08/14 08:43:03;;;;;;;2.88;1.40;;;;;;;;;;5012533;28;20041;-71
2023/08/14 08:45:32;;;;;;;2.75;1.50;;;;;;;;;;5007975;28;20454;-71
2023/08/14 08:48:00;;;;;;;1.38;1.20;;;;;;;;;;5001640;28;20061;-70
2023/08/14 08:50:28;;;;;;;1.40;1.30;;;;;;;;;;5009221;28;20049;-69
2023/08/14 08:52:54;;;;;;;1.25;1.17;;;;;;;;;;5012174;28;20503;-70
2023/08/14 08:55:20;;;;;;;1.60;1.00;;;;;;;;;;5002318;28;20052;-71
2023/08/14 08:57:50;;;;;;;1.30;1.30;;;;;;;;;;5005277;28;20144;-71
2023/08/14 09:00:15;;;;;;;1.15;1.15;;;;;;;;;;5000697;28;20053;-70
2023/08/14 09:02:41;;;;;;;1.33;1.23;;;;;;;;;;5000664;28;20054;-69
2023/08/14 09:05:06;;;;;;;2.20;1.20;;;;;;;;;;5010290;28;20132;-70
2023/08/14 09:07:33;;;;;;;1.20;1.10;;;;;;;;;;5008579;28;20041;-69
2023/08/14 09:10:00;;;;;;;1.05;0.95;;;;;;;;;;5010693;28;20053;-69
2023/08/14 09:12:25;;;;;;;1.48;1.05;;;;;;;;;;5005412;28;20044;-70
2023/08/14 09:15:05;;;;;;;2.58;1.17;;;;;;;;;;5001784;28;20045;-71
2023/08/14 09:17:31;;;;;;;1.58;1.23;;;;;;;;;;5002347;28;20050;-70
2023/08/14 09:19:57;;;;;;;1.55;1.30;;;;;;;;;;5002178;28;20037;-71
2023/08/14 09:22:28;;;;;;;2.05;1.30;;;;;;;;;;5001699;28;20557;-70
2023/08/14 09:24:57;;;;;;;1.20;1.10;;;;;;;;;;5002859;28;20053;-69
2023/08/14 09:27:24;;;;;;;1.83;1.48;;;;;;;;;;5002225;28;20048;-70
2023/08/14 09:29:53;;;;;;;1.30;1.20;;;;;;;;;;5002174;28;20060;-69
2023/08/14 09:32:23;;;;;;;1.58;1.20;;;;;;;;;;5007040;28;20045;-69
2023/08/14 09:34:59;;;;;;;1.80;1.30;;;;;;;;;;5005758;28;20077;-70
2023/08/14 09:37:26;;;;;;;2.03;1.30;;;;;;;;;;5002150;28;20287;-69
2023/08/14 09:40:15;;;;;;;1.50;1.40;;;;;;;;;;5001629;28;20403;-70
2023/08/14 09:42:46;;;;;;;1.40;1.30;;;;;;;;;;5014924;28;20046;-70
2023/08/14 09:45:13;;;;;;;1.10;1.10;;;;;;;;;;5000729;28;20423;-70
2023/08/14 09:47:40;;;;;;;1.52;1.42;;;;;;;;;;4992274;28;20336;-70
2023/08/14 09:50:07;;;;;;;2.65;1.15;;;;;;;;;;4999260;28;20081;-70
2023/08/14 09:52:33;;;;;;;2.95;1.58;;;;;;;;;;5004518;28;20056;-69
2023/08/14 09:55:00;;;;;;;1.27;1.17;;;;;;;;;;5002449;28;20038;-69
2023/08/14 09:57:26;;;;;;;1.27;1.20;;;;;;;;;;5006685;28;20038;-69
2023/08/14 09:59:52;;;;;;;3.13;1.80;;;;;;;;;;5000316;28;20128;-68
2023/08/14 10:02:22;;;;;;;2.67;1.52;;;;;;;;;;5011158;28;20038;-68
2023/08/14 10:04:49;;;;;;;2.40;1.65;;;;;;;;;;5001754;28;20034;-69
2023/08/14 10:07:16;;;;;;;1.45;1.35;;;;;;;;;;5007653;28;20041;-70
2023/08/14 10:09:53;;;;;;;2.17;1.50;;;;;;;;;;5005797;28;20049;-68
2023/08/14 10:12:22;;;;;;;1.25;1.15;;;;;;;;;;5003444;28;20050;-69
2023/08/14 10:14:56;;;;;;;1.63;1.52;;;;;;;;;;5001366;28;20045;-70
2023/08/14 10:17:31;;;;;;;2.42;1.40;;;;;;;;;;4999564;28;20041;-70
2023/08/14 10:20:00;;;;;;;1.38;1.17;;;;;;;;;;5001081;28;20582;-68
2023/08/14 10:22:27;;;;;;;1.20;1.10;;;;;;;;;;5001040;28;20372;-69
2023/08/14 10:24:53;;;;;;;1.30;1.20;;;;;;;;;;5000031;28;20185;-70
2023/08/14 10:27:19;;;;;;;1.65;1.55;;;;;;;;;;4999159;28;20112;-70
2023/08/14 10:29:47;;;;;;;1.50;1.40;;;;;;;;;;5000857;28;20064;-69
2023/08/14 10:32:13;;;;;;;1.40;1.30;;;;;;;;;;5019600;28;20046;-68
2023/08/14 10:34:39;;;;;;;1.95;1.50;;;;;;;;;;5004138;28;20486;-69
2023/08/14 10:37:04;;;;;;;2.72;1.20;;;;;;;;;;5013015;28;20038;-69
2023/08/14 10:39:35;;;;;;;2.15;1.40;;;;;;;;;;5007350;28;20045;-69
2023/08/14 10:42:03;;;;;;;1.77;1.30;;;;;;;;;;5006687;28;20050;-70
2023/08/14 10:44:35;;;;;;;1.50;1.40;;;;;;;;;;5011606;28;20056;-69
2023/08/14 10:47:10;;;;;;;1.38;1.27;;;;;;;;;;5015328;28;20049;-69
2023/08/14 10:49:54;;;;;;;5.50;1.55;;;;;;;;;;5017566;28;20088;-68
2023/08/14 10:52:20;;;;;;;2.25;1.40;;;;;;;;;;5012731;28;20502;-69
2023/08/14 10:54:52;;;;;;;2.10;1.40;;;;;;;;;;5016998;28;20056;-70
2023/08/14 10:57:27;;;;;;;1.52;1.30;;;;;;;;;;5015820;28;20080;-70
2023/08/14 10:59:57;;;;;;;1.80;1.70;;;;;;;;;;5003424;28;20124;-70
2023/08/14 11:02:24;;;;;;;1.60;1.50;;;;;;;;;;5001009;28;20062;-70
2023/08/14 11:05:01;;;;;;;4.53;1.52;;;;;;;;;;5002612;28;20060;-70
2023/08/14 11:07:32;;;;;;;1.55;1.45;;;;;;;;;;5005779;28;20046;-70
2023/08/14 11:09:58;;;;;;;2.78;1.55;;;;;;;;;;5006621;28;20418;-70
2023/08/14 11:12:25;;;;;;;2.60;1.60;;;;;;;;;;5001676;28;20565;-70
2023/08/14 11:14:51;;;;;;;1.52;1.38;;;;;;;;;;4999677;28;20042;-70
2023/08/14 11:17:16;;;;;;;1.73;1.40;;;;;;;;;;5005082;28;20092;-70
2023/08/14 11:19:42;;;;;;;1.60;1.50;;;;;;;;;;5011369;28;20454;-69
2023/08/14 11:22:08;;;;;;;3.50;1.42;;;;;;;;;;5005113;28;20126;-70
2023/08/14 11:24:34;;;;;;;1.60;1.50;;;;;;;;;;5003041;28;20161;-69
2023/08/14 11:27:00;;;;;;;2.15;1.63;;;;;;;;;;5000225;28;20038;-70
2023/08/14 11:29:26;;;;;;;2.15;1.60;;;;;;;;;;5001717;28;20048;-70
2023/08/14 11:31:52;;;;;;;1.75;1.65;;;;;;;;;;5000595;28;20054;-71
2023/08/14 11:34:18;;;;;;;1.80;1.70;;;;;;;;;;4999572;28;20045;-68
2023/08/14 11:37:01;;;;;;;1.63;1.50;;;;;;;;;;5001617;28;20096;-70
2023/08/14 11:39:27;;;;;;;2.35;1.70;;;;;;;;;;5003654;28;20052;-71
2023/08/14 11:41:53;;;;;;;1.65;1.55;;;;;;;;;;5005815;28;20144;-70
2023/08/14 11:44:19;;;;;;;2.53;1.63;;;;;;;;;;5004013;28;20144;-71
2023/08/14 11:46:45;;;;;;;2.15;1.50;;;;;;;;;;4999673;28;20152;-71
2023/08/14 11:49:12;;;;;;;1.63;1.52;;;;;;;;;;5010146;28;20058;-70
2023/08/14 11:51:40;;;;;;;1.70;1.60;;;;;;;;;;5006496;28;20044;-69
2023/08/14 11:54:07;;;;;;;2.90;1.67;;;;;;;;;;5007166;28;20041;-69
2023/08/14 11:56:33;;;;;;;1.65;1.55;;;;;;;;;;5006835;28;20153;-69
2023/08/14 11:58:59;;;;;;;1.60;1.50;;;;;;;;;;5006607;28;20045;-69
2023/08/14 12:01:25;;;;;;;1.95;1.70;;;;;;;;;;5008399;28;20115;-69
2023/08/14 12:03:51;;;;;;;1.65;1.55;;;;;;;;;;5001990;28;20038;-70
2023/08/14 12:06:16;;;;;;;1.55;1.45;;;;;;;;;;5008016;28;20085;-69
2023/08/14 12:08:42;;;;;;;1.48;1.38;;;;;;;;;;5003278;28;20068;-70
2023/08/14 12:11:08;;;;;;;1.15;1.10;;;;;;;;;;5007781;28;20183;-71
2023/08/14 12:13:34;;;;;;;1.33;1.23;;;;;;;;;;5013038;28;20042;-71
2023/08/14 12:16:06;;;;;;;1.75;1.42;;;;;;;;;;5003570;28;20109;-71
2023/08/14 12:18:32;;;;;;;1.92;1.30;;;;;;;;;;5008481;28;20192;-71
2023/08/14 12:20:57;;;;;;;1.40;1.30;;;;;;;;;;5005695;28;20144;-71
2023/08/14 12:23:23;;;;;;;1.50;1.40;;;;;;;;;;5010200;28;20049;-70
2023/08/14 12:25:49;;;;;;;1.67;1.20;;;;;;;;;;5009774;28;20060;-72
2023/08/14 12:28:15;;;;;;;1.83;1.38;;;;;;;;;;5006533;28;20045;-72
2023/08/14 12:30:40;;;;;;;2.20;1.40;;;;;;;;;;5010915;28;20048;-70
2023/08/14 12:33:06;;;;;;;1.63;1.50;;;;;;;;;;5013637;28;20061;-70
2023/08/14 12:35:31;;;;;;;2.55;1.60;;;;;;;;;;5011877;28;20049;-70
2023/08/14 12:37:58;;;;;;;1.30;1.20;;;;;;;;;;5012977;28;20033;-72
2023/08/14 12:40:24;;;;;;;1.55;1.45;;;;;;;;;;5003160;28;20054;-69
2023/08/14 12:42:49;;;;;;;1.70;1.25;;;;;;;;;;5003708;28;20041;-73
2023/08/14 12:45:15;;;;;;;2.38;1.33;;;;;;;;;;5001282;28;20498;-73
2023/08/14 12:47:40;;;;;;;3.25;1.33;;;;;;;;;;5002610;28;20069;-72
2023/08/14 12:50:06;;;;;;;1.70;1.60;;;;;;;;;;5001800;28;20201;-72
2023/08/14 12:52:31;;;;;;;1.50;1.40;;;;;;;;;;5002285;28;20046;-71
2023/08/14 12:54:57;;;;;;;1.55;1.38;;;;;;;;;;5003015;28;20056;-71
2023/08/14 12:57:25;;;;;;;1.55;1.35;;;;;;;;;;5005300;28;20050;-71
2023/08/14 12:59:50;;;;;;;1.92;1.30;;;;;;;;;;5005432;28;20577;-71
2023/08/14 13:02:16;;;;;;;1.17;1.10;;;;;;;;;;5001099;28;20740;-72
2023/08/14 13:04:41;;;;;;;1.40;1.30;;;;;;;;;;5004430;28;20387;-72
2023/08/14 13:07:06;;;;;;;0.93;0.93;;;;;;;;;;5001056;28;20526;-74
2023/08/14 13:09:32;;;;;;;2.45;1.30;;;;;;;;;;5001206;28;20080;-69
2023/08/14 13:11:57;;;;;;;1.30;1.20;;;;;;;;;;5004917;28;20045;-70
2023/08/14 13:14:23;;;;;;;1.42;1.05;;;;;;;;;;5005805;28;20100;-71
2023/08/14 13:16:48;;;;;;;1.80;1.35;;;;;;;;;;5002202;28;20038;-71
2023/08/14 13:19:14;;;;;;;4.63;1.40;;;;;;;;;;5002531;28;20091;-71
2023/08/14 13:21:39;;;;;;;1.20;1.20;;;;;;;;;;5004984;28;20521;-70
2023/08/14 13:24:06;;;;;;;1.10;1.10;;;;;;;;;;5002154;28;20550;-71
2023/08/14 13:26:31;;;;;;;2.10;1.45;;;;;;;;;;5004823;28;20148;-71
2023/08/14 13:28:57;;;;;;;1.85;1.38;;;;;;;;;;5001645;28;20034;-71
2023/08/14 13:31:22;;;;;;;1.40;1.30;;;;;;;;;;5002471;28;20402;-72
2023/08/14 13:33:48;;;;;;;4.28;1.50;;;;;;;;;;5003108;28;20058;-73
2023/08/14 13:36:13;;;;;;;3.60;1.40;;;;;;;;;;5004528;28;20041;-70
2023/08/14 13:38:39;;;;;;;2.75;1.42;;;;;;;;;;5001624;28;20061;-71
2023/08/14 13:41:04;;;;;;;2.65;1.42;;;;;;;;;;5002093;28;20060;-71
2023/08/14 13:43:30;;;;;;;1.80;1.70;;;;;;;;;;5002662;28;20096;-72
2023/08/14 13:45:55;;;;;;;2.05;1.75;;;;;;;;;;5001911;28;20359;-72
2023/08/14 13:48:21;;;;;;;2.00;1.73;;;;;;;;;;4999971;28;20980;-72
2023/08/14 13:50:46;;;;;;;5.72;2.08;;;;;;;;;;5001855;28;20057;-72
2023/08/14 13:53:11;;;;;;;3.65;1.33;;;;;;;;;;5001981;28;20065;-71
2023/08/14 13:55:37;;;;;;;1.58;1.48;;;;;;;;;;5002246;28;20046;-71
2023/08/14 13:58:02;;;;;;;2.47;1.50;;;;;;;;;;5000288;28;20045;-72
2023/08/14 14:00:28;;;;;;;1.63;1.52;;;;;;;;;;5001000;28;20046;-72
2023/08/14 14:02:54;;;;;;;1.83;1.50;;;;;;;;;;5001693;28;20096;-72
2023/08/14 14:05:19;;;;;;;1.58;1.33;;;;;;;;;;5002079;28;20077;-71
2023/08/14 14:07:45;;;;;;;1.77;1.60;;;;;;;;;;5001659;28;20217;-72
2023/08/14 14:10:11;;;;;;;1.63;1.52;;;;;;;;;;5001206;28;20046;-71
2023/08/14 14:12:36;;;;;;;5.28;1.92;;;;;;;;;;4999973;28;20053;-72
2023/08/14 14:15:02;;;;;;;1.77;1.63;;;;;;;;;;4988255;28;20056;-72
2023/08/14 14:17:28;;;;;;;1.85;1.50;;;;;;;;;;5001763;28;20041;-72
2023/08/14 14:19:54;;;;;;;2.97;1.42;;;;;;;;;;5000716;28;20241;-71
2023/08/14 14:22:19;;;;;;;4.07;1.52;;;;;;;;;;5000889;28;20049;-72
2023/08/14 14:24:45;;;;;;;4.70;1.88;;;;;;;;;;4987062;28;20107;-74
2023/08/14 14:27:10;;;;;;;1.80;1.33;;;;;;;;;;5001201;28;20049;-71
2023/08/14 14:29:36;;;;;;;2.42;1.80;;;;;;;;;;5000970;28;20046;-70
2023/08/14 14:32:01;;;;;;;2.38;1.60;;;;;;;;;;5002348;28;20730;-72
2023/08/14 14:34:27;;;;;;;1.50;1.40;;;;;;;;;;5001840;28;20167;-71
2023/08/14 14:36:52;;;;;;;1.98;1.65;;;;;;;;;;5000642;28;20398;-71
2023/08/14 14:39:18;;;;;;;3.60;1.40;;;;;;;;;;5000676;28;20049;-72